createdAt,value
2018-04-07T00:01:12.842Z,22.23
2018-04-07T00:03:41.160Z,14.40
2018-04-07T00:06:09.452Z,15.30
2018-04-07T00:08:38.533Z,14.73
2018-04-07T00:11:06.901Z,14.53
2018-04-07T00:13:35.585Z,20.00
2018-04-07T00:16:04.305Z,17.00
2018-04-07T00:18:35.877Z,16.80
2018-04-07T00:21:04.793Z,15.10
2018-04-07T00:23:33.206Z,18.07
2018-04-07T00:26:02.200Z,18.30
2018-04-07T00:28:30.523Z,17.97
2018-04-07T00:33:39.549Z,18.77
2018-04-07T00:36:07.876Z,22.97
2018-04-07T00:38:36.828Z,14.80
2018-04-07T00:41:07.384Z,16.13
2018-04-07T00:43:35.716Z,18.27
2018-04-07T00:46:04.015Z,20.07
2018-04-07T00:48:32.385Z,18.80
2018-04-07T00:51:02.034Z,21.67
2018-04-07T00:53:30.458Z,17.50
2018-04-07T00:55:59.906Z,15.83
2018-04-07T00:58:28.256Z,17.80
2018-04-07T01:00:56.561Z,15.70
2018-04-07T01:03:25.415Z,19.70
2018-04-07T01:05:53.818Z,21.63
2018-04-07T01:08:22.744Z,19.10
2018-04-07T01:10:51.081Z,22.60
2018-04-07T01:13:20.896Z,20.13
2018-04-07T01:15:49.284Z,17.87
2018-04-07T01:18:18.205Z,19.50
2018-04-07T01:20:46.657Z,25.47
2018-04-07T01:23:15.676Z,20.83
2018-04-07T01:25:44.218Z,22.07
2018-04-07T01:28:14.331Z,24.60
2018-04-07T01:30:43.873Z,22.37
2018-04-07T01:33:13.851Z,17.70
2018-04-07T01:35:42.785Z,21.50
2018-04-07T01:38:11.303Z,20.63
2018-04-07T01:40:40.857Z,21.10
2018-04-07T01:43:10.811Z,17.53
2018-04-07T01:45:39.319Z,21.80
2018-04-07T01:48:08.306Z,21.23
2018-04-07T01:50:36.597Z,16.50
2018-04-07T01:53:04.973Z,20.73
2018-04-07T01:55:34.655Z,21.70
2018-04-07T01:58:02.945Z,20.20
2018-04-07T02:00:31.300Z,20.20
2018-04-07T02:02:59.722Z,18.13
2018-04-07T02:05:28.018Z,19.93
2018-04-07T02:07:59.726Z,25.63
2018-04-07T02:10:28.776Z,22.67
2018-04-07T02:12:57.260Z,17.77
2018-04-07T02:15:26.425Z,20.23
2018-04-07T02:17:54.793Z,20.33
2018-04-07T02:20:23.596Z,17.37
2018-04-07T02:22:53.183Z,23.63
2018-04-07T02:25:21.470Z,18.90
2018-04-07T02:27:50.044Z,16.97
2018-04-07T02:30:24.893Z,24.73
2018-04-07T02:32:53.200Z,19.37
2018-04-07T02:35:22.266Z,20.93
2018-04-07T02:37:51.236Z,21.23
2018-04-07T02:40:19.527Z,23.70
2018-04-07T02:42:48.221Z,17.30
2018-04-07T02:45:17.796Z,19.47
2018-04-07T02:47:46.197Z,22.00
2018-04-07T02:50:15.226Z,24.27
2018-04-07T02:52:44.992Z,20.97
2018-04-07T02:55:13.293Z,20.90
2018-04-07T02:57:42.265Z,26.47
2018-04-07T03:00:11.274Z,21.53
2018-04-07T03:02:40.511Z,21.37
2018-04-07T03:05:09.769Z,21.90
2018-04-07T03:07:38.736Z,20.67
2018-04-07T03:10:07.108Z,22.20
2018-04-07T03:12:36.231Z,20.70
2018-04-07T03:15:04.968Z,19.27
2018-04-07T03:17:34.265Z,20.07
2018-04-07T03:20:04.140Z,23.70
2018-04-07T03:22:32.492Z,22.17
2018-04-07T03:25:01.596Z,24.03
2018-04-07T03:27:29.916Z,21.80
2018-04-07T03:29:58.317Z,19.33
2018-04-07T03:32:26.951Z,20.10
2018-04-07T03:34:55.640Z,22.87
2018-04-07T03:37:25.228Z,20.43
2018-04-07T03:39:53.517Z,24.30
2018-04-07T03:42:21.996Z,28.40
2018-04-07T03:44:51.168Z,25.03
2018-04-07T03:47:19.733Z,25.27
2018-04-07T03:49:48.481Z,23.80
2018-04-07T03:52:16.777Z,23.60
2018-04-07T03:54:45.063Z,24.80
2018-04-07T03:57:14.148Z,21.37
2018-04-07T03:59:46.251Z,25.97
2018-04-07T04:02:14.881Z,21.60
2018-04-07T04:04:43.745Z,31.70
2018-04-07T04:07:12.060Z,25.00
2018-04-07T04:09:41.388Z,28.00
2018-04-07T04:12:10.269Z,25.13
2018-04-07T04:14:38.604Z,23.10
2018-04-07T04:17:06.893Z,21.67
2018-04-07T04:19:35.925Z,21.97
2018-04-07T04:22:04.252Z,20.70
2018-04-07T04:24:35.095Z,19.50
2018-04-07T04:27:03.585Z,26.47
2018-04-07T04:29:32.406Z,21.97
2018-04-07T04:32:02.892Z,20.50
2018-04-07T04:34:31.485Z,19.87
2018-04-07T04:37:01.405Z,27.73
2018-04-07T04:39:30.346Z,22.60
2018-04-07T04:41:58.634Z,24.83
2018-04-07T04:44:27.919Z,22.10
2018-04-07T04:46:56.825Z,23.67
2018-04-07T04:49:25.149Z,20.67
2018-04-07T04:51:54.220Z,23.30
2018-04-07T04:54:23.124Z,21.70
2018-04-07T04:56:51.708Z,23.43
2018-04-07T04:59:20.818Z,21.10
2018-04-07T05:01:49.720Z,22.30
2018-04-07T05:04:20.017Z,22.90
2018-04-07T05:06:48.673Z,18.40
2018-04-07T05:09:17.888Z,17.60
2018-04-07T05:11:46.241Z,22.63
2018-04-07T05:14:14.532Z,20.47
2018-04-07T05:16:44.359Z,22.60
2018-04-07T05:19:12.712Z,25.87
2018-04-07T05:21:41.844Z,31.37
2018-04-07T05:24:10.776Z,25.90
2018-04-07T05:26:39.215Z,23.93
2018-04-07T05:29:07.509Z,27.57
2018-04-07T05:31:35.802Z,28.80
2018-04-07T05:34:04.797Z,27.40
2018-04-07T05:36:33.093Z,24.93
2018-04-07T05:39:02.137Z,40.07
2018-04-07T05:41:30.485Z,24.30
2018-04-07T05:43:58.768Z,28.70
2018-04-07T05:46:27.278Z,22.87
2018-04-07T05:48:57.184Z,21.80
2018-04-07T05:51:25.881Z,21.30
2018-04-07T05:53:55.274Z,23.30
2018-04-07T05:56:23.561Z,24.90
2018-04-07T05:58:51.968Z,23.13
2018-04-07T06:01:22.052Z,23.03
2018-04-07T06:03:50.985Z,19.17
2018-04-07T06:06:19.298Z,18.57
2018-04-07T06:08:47.613Z,18.43
2018-04-07T06:11:15.913Z,18.80
2018-04-07T06:13:46.566Z,24.63
2018-04-07T06:16:14.900Z,20.30
2018-04-07T06:18:43.187Z,23.37
2018-04-07T06:21:13.925Z,20.63
2018-04-07T06:23:42.589Z,22.50
2018-04-07T06:26:11.200Z,18.03
2018-04-07T06:28:40.353Z,16.40
2018-04-07T06:31:08.772Z,16.67
2018-04-07T06:33:37.664Z,17.80
2018-04-07T06:36:06.199Z,18.97
2018-04-07T06:38:34.493Z,19.20
2018-04-07T06:41:02.785Z,18.70
2018-04-07T06:43:31.158Z,18.93
2018-04-07T06:46:00.080Z,18.83
2018-04-07T06:48:28.449Z,19.10
2018-04-07T06:50:57.373Z,15.70
2018-04-07T06:53:27.597Z,17.83
2018-04-07T06:55:57.138Z,16.93
2018-04-07T06:58:26.632Z,17.77
2018-04-07T07:00:55.825Z,16.80
2018-04-07T07:03:25.284Z,21.20
2018-04-07T07:05:53.664Z,17.43
2018-04-07T07:08:22.332Z,22.20
2018-04-07T07:10:52.568Z,19.27
2018-04-07T07:13:22.013Z,19.80
2018-04-07T07:15:50.909Z,18.77
2018-04-07T07:18:20.863Z,20.20
2018-04-07T07:20:54.986Z,16.87
2018-04-07T07:23:26.504Z,20.40
2018-04-07T07:25:55.536Z,22.33
2018-04-07T07:28:26.389Z,20.20
2018-04-07T07:30:55.465Z,21.07
2018-04-07T07:33:24.465Z,19.27
2018-04-07T07:35:53.681Z,21.13
2018-04-07T07:38:22.772Z,19.00
2018-04-07T07:40:51.549Z,20.67
2018-04-07T07:43:21.584Z,22.17
2018-04-07T07:45:50.017Z,28.00
2018-04-07T07:48:18.313Z,18.70
2018-04-07T07:50:46.618Z,23.57
2018-04-07T07:53:15.156Z,21.80
2018-04-07T07:55:44.597Z,29.77
2018-04-07T07:58:13.689Z,23.00
2018-04-07T08:00:42.945Z,21.10
2018-04-07T08:03:11.834Z,20.50
2018-04-07T08:05:40.333Z,20.63
2018-04-07T08:08:09.252Z,21.67
2018-04-07T08:10:37.616Z,18.10
2018-04-07T08:13:06.789Z,20.70
2018-04-07T08:15:35.898Z,21.10
2018-04-07T08:18:04.820Z,17.50
2018-04-07T08:20:33.965Z,19.03
2018-04-07T08:23:02.356Z,19.20
2018-04-07T08:25:31.285Z,20.43
2018-04-07T08:28:00.041Z,23.70
2018-04-07T08:30:28.820Z,21.17
2018-04-07T08:32:57.705Z,20.13
2018-04-07T08:35:26.525Z,21.93
2018-04-07T08:37:55.334Z,17.73
2018-04-07T08:40:24.219Z,19.63
2018-04-07T08:42:52.542Z,19.83
2018-04-07T08:45:21.760Z,20.50
2018-04-07T08:47:50.060Z,18.70
2018-04-07T08:50:18.969Z,18.73
2018-04-07T08:52:48.102Z,19.03
2018-04-07T08:55:17.320Z,17.43
2018-04-07T08:57:46.161Z,18.63
2018-04-07T09:00:14.604Z,25.43
2018-04-07T09:02:43.014Z,20.83
2018-04-07T09:05:11.985Z,39.73
2018-04-07T09:07:41.209Z,22.90
2018-04-07T09:10:11.108Z,16.53
2018-04-07T09:12:40.015Z,20.80
2018-04-07T09:15:09.270Z,18.50
2018-04-07T09:17:38.205Z,20.17
2018-04-07T09:20:07.291Z,21.63
2018-04-07T09:22:35.629Z,19.73
2018-04-07T09:25:04.540Z,21.70
2018-04-07T09:27:33.769Z,20.40
2018-04-07T09:30:02.478Z,21.33
2018-04-07T09:32:31.951Z,18.90
2018-04-07T09:35:01.050Z,25.80
2018-04-07T09:37:29.616Z,21.07
2018-04-07T09:39:57.987Z,22.63
2018-04-07T09:42:26.780Z,19.90
2018-04-07T09:44:55.878Z,20.17
2018-04-07T09:47:24.164Z,19.00
2018-04-07T09:49:55.797Z,18.73
2018-04-07T09:52:29.965Z,16.30
2018-04-07T09:54:58.639Z,20.37
2018-04-07T09:57:27.014Z,17.37
2018-04-07T09:59:55.444Z,19.37
2018-04-07T10:02:25.104Z,19.60
2018-04-07T10:04:54.472Z,19.63
2018-04-07T10:07:23.397Z,21.50
2018-04-07T10:09:51.876Z,19.10
2018-04-07T10:12:20.785Z,17.43
2018-04-07T10:14:50.030Z,18.17
2018-04-07T10:17:19.121Z,17.20
2018-04-07T10:19:48.031Z,27.10
2018-04-07T10:22:16.336Z,16.87
2018-04-07T10:24:44.778Z,23.07
2018-04-07T10:27:14.521Z,21.53
2018-04-07T10:29:42.829Z,20.00
2018-04-07T10:32:12.879Z,17.47
2018-04-07T10:34:41.656Z,18.10
2018-04-07T10:37:10.253Z,18.10
2018-04-07T10:39:38.657Z,21.63
2018-04-07T10:42:07.724Z,18.90
2018-04-07T10:44:36.565Z,16.70
2018-04-07T10:47:05.820Z,19.17
2018-04-07T10:49:34.913Z,23.03
2018-04-07T10:52:04.869Z,16.53
2018-04-07T10:54:34.736Z,18.73
2018-04-07T10:57:03.677Z,19.07
2018-04-07T10:59:32.940Z,18.80
2018-04-07T11:02:01.858Z,20.57
2018-04-07T11:04:30.302Z,19.63
2018-04-07T11:07:00.220Z,24.77
2018-04-07T11:09:29.216Z,16.80
2018-04-07T11:11:58.098Z,16.50
2018-04-07T11:14:26.681Z,18.03
2018-04-07T11:16:55.125Z,22.93
2018-04-07T11:19:23.951Z,31.20
2018-04-07T11:21:52.301Z,21.03
2018-04-07T11:24:21.264Z,21.17
2018-04-07T11:26:49.600Z,20.33
2018-04-07T11:29:17.984Z,20.27
2018-04-07T11:31:47.080Z,19.70
2018-04-07T11:34:16.034Z,21.60
2018-04-07T11:36:44.375Z,17.67
2018-04-07T11:39:13.380Z,19.80
2018-04-07T11:41:42.639Z,18.77
2018-04-07T11:44:11.608Z,21.63
2018-04-07T11:46:39.905Z,20.40
2018-04-07T11:49:09.744Z,19.87
2018-04-07T11:51:38.200Z,23.97
2018-04-07T11:54:07.046Z,22.60
2018-04-07T11:56:35.346Z,38.37
2018-04-07T11:59:03.080Z,20.50
2018-04-07T12:01:31.969Z,19.50
2018-04-07T12:04:00.272Z,21.20
2018-04-07T12:06:28.753Z,17.50
2018-04-07T12:08:58.169Z,22.57
2018-04-07T12:11:26.889Z,16.47
2018-04-07T12:13:56.013Z,21.53
2018-04-07T12:16:24.983Z,20.40
2018-04-07T12:18:57.152Z,18.37
2018-04-07T12:21:25.440Z,24.07
2018-04-07T12:23:54.833Z,20.77
2018-04-07T12:26:23.820Z,19.23
2018-04-07T12:28:52.296Z,22.50
2018-04-07T12:31:21.354Z,22.90
2018-04-07T12:33:50.470Z,19.70
2018-04-07T12:36:19.330Z,19.70
2018-04-07T12:38:47.629Z,17.90
2018-04-07T12:41:18.508Z,20.27
2018-04-07T12:43:47.580Z,18.77
2018-04-07T12:46:17.289Z,16.67
2018-04-07T12:48:46.256Z,20.27
2018-04-07T12:51:14.704Z,18.40
2018-04-07T12:53:43.806Z,18.83
2018-04-07T12:56:12.957Z,21.17
2018-04-07T12:58:41.984Z,20.30
2018-04-07T13:01:14.481Z,20.90
2018-04-07T13:03:43.448Z,17.50
2018-04-07T13:06:12.120Z,23.20
2018-04-07T13:08:40.865Z,19.17
2018-04-07T13:11:09.268Z,19.00
2018-04-07T13:13:37.760Z,19.97
2018-04-07T13:16:11.564Z,19.83
2018-04-07T13:18:40.733Z,19.27
2018-04-07T13:21:10.609Z,20.13
2018-04-07T13:23:40.567Z,16.30
2018-04-07T13:26:08.861Z,19.13
2018-04-07T13:28:37.148Z,18.90
2018-04-07T13:31:05.476Z,15.10
2018-04-07T13:33:38.527Z,20.03
2018-04-07T13:36:02.921Z,16.23
2018-04-07T13:38:31.224Z,22.20
2018-04-07T13:40:59.525Z,19.23
2018-04-07T13:43:29.253Z,15.43
2018-04-07T13:45:57.545Z,21.70
2018-04-07T13:48:25.908Z,18.67
2018-04-07T13:50:54.768Z,21.03
2018-04-07T13:53:23.114Z,19.10
2018-04-07T13:55:51.400Z,17.60
2018-04-07T13:58:20.737Z,22.43
2018-04-07T14:00:49.669Z,20.63
2018-04-07T14:03:18.896Z,17.23
2018-04-07T14:05:47.758Z,19.27
2018-04-07T14:08:16.873Z,16.53
2018-04-07T14:10:45.247Z,18.40
2018-04-07T14:13:14.310Z,19.50
2018-04-07T14:15:43.345Z,19.73
2018-04-07T14:18:11.656Z,17.67
2018-04-07T14:20:39.981Z,16.00
2018-04-07T14:23:08.338Z,15.67
2018-04-07T14:25:37.248Z,18.07
2018-04-07T14:28:05.630Z,15.13
2018-04-07T14:30:34.572Z,16.03
2018-04-07T14:33:03.736Z,19.53
2018-04-07T14:35:33.824Z,15.70
2018-04-07T14:38:03.794Z,15.57
2018-04-07T14:40:33.693Z,14.67
2018-04-07T14:43:05.194Z,14.20
2018-04-07T14:45:33.536Z,14.97
2018-04-07T14:48:02.350Z,16.13
2018-04-07T14:50:31.505Z,13.60
2018-04-07T14:53:00.764Z,12.37
2018-04-07T14:55:29.746Z,15.13
2018-04-07T14:57:58.956Z,17.57
2018-04-07T15:00:28.051Z,15.37
2018-04-07T15:02:56.530Z,12.07
2018-04-07T15:05:25.633Z,11.70
2018-04-07T15:07:57.811Z,11.07
2018-04-07T15:10:26.280Z,11.17
2018-04-07T15:12:55.208Z,9.77
2018-04-07T15:15:23.501Z,11.83
2018-04-07T15:17:52.204Z,10.33
2018-04-07T15:20:20.978Z,10.40
2018-04-07T15:22:49.944Z,9.90
2018-04-07T15:25:20.656Z,13.33
2018-04-07T15:27:49.003Z,9.00
2018-04-07T15:30:17.396Z,11.17
2018-04-07T15:32:46.417Z,12.87
2018-04-07T15:35:14.702Z,8.40
2018-04-07T15:37:43.228Z,7.93
2018-04-07T15:40:13.796Z,10.43
2018-04-07T15:42:42.893Z,8.30
2018-04-07T15:45:11.985Z,7.70
2018-04-07T15:47:41.744Z,9.30
2018-04-07T15:50:10.164Z,8.87
2018-04-07T15:52:39.196Z,6.50
2018-04-07T15:55:09.880Z,7.60
2018-04-07T15:57:38.237Z,8.10
2018-04-07T16:00:06.533Z,10.67
2018-04-07T16:02:35.527Z,7.53
2018-04-07T16:05:03.864Z,7.27
2018-04-07T16:07:33.665Z,4.73
2018-04-07T16:10:05.317Z,12.73
2018-04-07T16:12:33.608Z,10.00
2018-04-07T16:15:02.781Z,11.40
2018-04-07T16:17:31.864Z,10.93
2018-04-07T16:20:00.361Z,8.83
2018-04-07T16:22:29.145Z,9.00
2018-04-07T16:24:57.515Z,11.50
2018-04-07T16:27:26.021Z,8.00
2018-04-07T16:29:54.716Z,7.27
2018-04-07T16:32:23.072Z,10.23
2018-04-07T16:34:52.101Z,8.93
2018-04-07T16:37:20.388Z,10.43
2018-04-07T16:39:50.448Z,18.37
2018-04-07T16:42:19.374Z,11.53
2018-04-07T16:44:48.477Z,11.60
2018-04-07T16:47:18.297Z,7.60
2018-04-07T16:49:47.128Z,9.93
2018-04-07T16:52:15.968Z,11.00
2018-04-07T16:54:44.311Z,10.57
2018-04-07T16:57:13.093Z,12.10
2018-04-07T16:59:41.455Z,11.50
2018-04-07T17:02:09.857Z,10.40
2018-04-07T17:04:38.696Z,15.70
2018-04-07T17:07:07.492Z,15.07
2018-04-07T17:09:35.866Z,11.73
2018-04-07T17:12:04.804Z,16.07
2018-04-07T17:14:33.544Z,12.47
2018-04-07T17:17:01.996Z,13.23
2018-04-07T17:19:30.284Z,10.97
2018-04-07T17:21:58.741Z,12.50
2018-04-07T17:24:27.337Z,14.23
2018-04-07T17:26:55.928Z,13.37
2018-04-07T17:29:24.388Z,14.37
2018-04-07T17:31:53.424Z,12.80
2018-04-07T17:34:24.054Z,13.53
2018-04-07T17:36:53.193Z,16.27
2018-04-07T17:39:21.488Z,15.80
2018-04-07T17:41:50.754Z,17.40
2018-04-07T17:44:19.685Z,15.00
2018-04-07T17:46:48.700Z,15.13
2018-04-07T17:49:18.005Z,22.23
2018-04-07T17:51:47.917Z,17.70
2018-04-07T17:54:16.628Z,18.07
2018-04-07T17:56:45.173Z,17.80
2018-04-07T17:59:13.980Z,21.80
2018-04-07T18:01:42.508Z,16.50
2018-04-07T18:04:11.717Z,15.20
2018-04-07T18:06:41.844Z,16.80
2018-04-07T18:09:10.565Z,15.90
2018-04-07T18:11:38.967Z,16.13
2018-04-07T18:14:07.241Z,16.30
2018-04-07T18:16:36.212Z,12.00
2018-04-07T18:19:04.606Z,14.50
2018-04-07T18:21:32.913Z,19.20
2018-04-07T18:24:01.264Z,15.70
2018-04-07T18:26:29.848Z,14.47
2018-04-07T18:28:58.661Z,18.20
2018-04-07T18:31:27.081Z,14.07
2018-04-07T18:33:56.170Z,13.97
2018-04-07T18:36:25.021Z,19.67
2018-04-07T18:38:53.360Z,17.97
2018-04-07T18:41:21.816Z,16.23
2018-04-07T18:43:50.793Z,17.63
2018-04-07T18:46:19.911Z,15.83
2018-04-07T18:48:49.145Z,18.60
2018-04-07T18:51:17.965Z,18.23
2018-04-07T18:53:46.571Z,20.60
2018-04-07T18:56:16.457Z,14.67
2018-04-07T18:58:45.320Z,16.63
2018-04-07T19:01:13.632Z,16.20
2018-04-07T19:03:43.668Z,18.20
2018-04-07T19:06:12.264Z,21.20
2018-04-07T19:08:40.881Z,18.53
2018-04-07T19:11:09.232Z,23.73
2018-04-07T19:13:37.545Z,19.57
2018-04-07T19:16:06.524Z,19.33
2018-04-07T19:18:34.878Z,20.10
2018-04-07T19:21:03.179Z,22.30
2018-04-07T19:23:32.076Z,21.90
2018-04-07T19:26:00.564Z,29.67
2018-04-07T19:28:29.544Z,23.23
2018-04-07T19:30:57.844Z,22.50
2018-04-07T19:33:26.183Z,19.73
2018-04-07T19:35:54.558Z,20.27
2018-04-07T19:38:23.457Z,23.10
2018-04-07T19:40:52.819Z,20.73
2018-04-07T19:43:21.747Z,24.17
2018-04-07T19:45:50.517Z,21.40
2018-04-07T19:48:23.099Z,19.63
2018-04-07T19:50:51.745Z,18.33
2018-04-07T19:53:21.341Z,20.57
2018-04-07T19:55:50.579Z,18.47
2018-04-07T19:58:19.590Z,20.20
2018-04-07T20:00:47.889Z,20.13
2018-04-07T20:03:17.018Z,24.00
2018-04-07T20:05:45.405Z,24.93
2018-04-07T20:08:13.813Z,22.67
2018-04-07T20:10:42.460Z,20.00
2018-04-07T20:13:11.850Z,21.93
2018-04-07T20:15:40.884Z,18.47
2018-04-07T20:18:09.209Z,22.13
2018-04-07T20:20:37.517Z,24.37
2018-04-07T20:23:06.735Z,25.80
2018-04-07T20:25:35.645Z,20.67
2018-04-07T20:28:03.956Z,27.53
2018-04-07T20:30:32.914Z,21.70
2018-04-07T20:33:01.376Z,27.63
2018-04-07T20:35:30.505Z,17.03
2018-04-07T20:37:59.434Z,25.37
2018-04-07T20:40:27.801Z,23.47
2018-04-07T20:42:56.889Z,22.47
2018-04-07T20:45:25.245Z,24.03
2018-04-07T20:47:54.162Z,17.43
2018-04-07T20:50:23.012Z,20.33
2018-04-07T20:52:52.412Z,19.03
2018-04-07T20:55:21.635Z,17.63
2018-04-07T20:57:50.696Z,24.87
2018-04-07T21:00:19.021Z,21.60
2018-04-07T21:02:48.210Z,25.10
2018-04-07T21:05:17.176Z,25.80
2018-04-07T21:07:47.125Z,27.30
2018-04-07T21:10:15.820Z,20.33
2018-04-07T21:12:45.267Z,22.13
2018-04-07T21:15:15.325Z,21.97
2018-04-07T21:17:44.540Z,22.27
2018-04-07T21:20:14.244Z,19.20
2018-04-07T21:22:43.501Z,23.23
2018-04-07T21:25:12.122Z,26.10
2018-04-07T21:27:41.248Z,23.13
2018-04-07T21:30:10.917Z,22.10
2018-04-07T21:32:40.005Z,22.23
2018-04-07T21:35:09.112Z,19.97
2018-04-07T21:37:39.377Z,16.70
2018-04-07T21:40:07.993Z,17.40
2018-04-07T21:42:36.589Z,23.03
2018-04-07T21:45:06.370Z,22.20
2018-04-07T21:47:34.716Z,19.77
2018-04-07T21:50:03.009Z,22.77
2018-04-07T21:52:31.867Z,21.33
2018-04-07T21:55:01.047Z,24.50
2018-04-07T21:57:29.975Z,22.30
2018-04-07T21:59:58.559Z,19.20
2018-04-07T22:02:27.435Z,18.70
2018-04-07T22:04:59.646Z,22.70
2018-04-07T22:07:28.856Z,23.20
2018-04-07T22:09:57.953Z,21.60
2018-04-07T22:12:26.260Z,16.87
2018-04-07T22:14:55.425Z,18.77
2018-04-07T22:17:24.414Z,21.63
2018-04-07T22:19:53.484Z,16.23
2018-04-07T22:22:23.427Z,18.47
2018-04-07T22:24:52.048Z,23.50
2018-04-07T22:27:21.300Z,21.30
2018-04-07T22:29:49.949Z,19.10
2018-04-07T22:32:18.338Z,21.00
2018-04-07T22:34:46.662Z,21.90
2018-04-07T22:37:16.085Z,20.00
2018-04-07T22:39:44.694Z,18.70
2018-04-07T22:42:16.755Z,20.20
2018-04-07T22:44:48.432Z,22.30
2018-04-07T22:47:17.658Z,22.07
2018-04-07T22:49:45.952Z,17.67
2018-04-07T22:52:14.624Z,20.33
2018-04-07T22:54:43.652Z,19.57
2018-04-07T22:57:14.066Z,18.90
2018-04-07T22:59:42.370Z,17.13
2018-04-07T23:02:10.828Z,18.47
2018-04-07T23:04:39.825Z,23.40
2018-04-07T23:07:09.746Z,19.50
2018-04-07T23:09:38.559Z,20.70
2018-04-07T23:12:06.852Z,19.63
2018-04-07T23:14:36.206Z,24.10
2018-04-07T23:17:05.142Z,25.70
2018-04-07T23:19:34.241Z,19.10
2018-04-07T23:22:03.497Z,30.23
2018-04-07T23:24:32.428Z,18.37
2018-04-07T23:27:00.740Z,18.73
2018-04-07T23:29:29.060Z,17.80
2018-04-07T23:31:57.352Z,20.60
2018-04-07T23:34:26.374Z,17.10
2018-04-07T23:36:56.264Z,22.53
2018-04-07T23:39:24.708Z,21.10
2018-04-07T23:41:54.457Z,21.80
2018-04-07T23:44:24.360Z,20.20
2018-04-07T23:46:53.389Z,23.17
2018-04-07T23:49:21.770Z,21.30
2018-04-07T23:51:50.896Z,28.97
2018-04-07T23:54:20.101Z,19.60
2018-04-07T23:56:48.917Z,21.93
2018-04-07T23:59:17.302Z,21.40
